sensor_id;sensor_type;location;lat;lon;timestamp;pressure;altitude;pressure_sealevel;temperature;humidity
43436;BME280;36399;51.444;-2.018;2023-11-22T00:01:10;102430.97;;;2.50;100.00
43436;BME280;36399;51.444;-2.018;2023-11-22T00:03:36;102440.22;;;2.58;100.00
43436;BME280;36399;51.444;-2.018;2023-11-22T00:06:02;102433.75;;;2.75;100.00
43436;BME280;36399;51.444;-2.018;2023-11-22T00:08:28;102434.00;;;2.78;100.00
43436;BME280;36399;51.444;-2.018;2023-11-22T00:10:57;102432.41;;;2.80;100.00
43436;BME280;36399;51.444;-2.018;2023-11-22T00:13:23;102439.19;;;2.78;100.00
43436;BME280;36399;51.444;-2.018;2023-11-22T00:15:49;102433.75;;;2.75;100.00
43436;BME280;36399;51.444;-2.018;2023-11-22T00:18:16;102437.38;;;2.77;100.00
43436;BME280;36399;51.444;-2.018;2023-11-22T00:20:42;102434.00;;;2.78;100.00
43436;BME280;36399;51.444;-2.018;2023-11-22T00:23:08;102432.53;;;2.81;100.00
43436;BME280;36399;51.444;-2.018;2023-11-22T00:25:34;102429.03;;;2.81;100.00
43436;BME280;36399;51.444;-2.018;2023-11-22T00:28:00;102435.13;;;2.81;100.00
43436;BME280;36399;51.444;-2.018;2023-11-22T00:30:26;102429.94;;;2.81;100.00
43436;BME280;36399;51.444;-2.018;2023-11-22T00:32:52;102435.25;;;2.83;100.00
43436;BME280;36399;51.444;-2.018;2023-11-22T00:35:18;102438.63;;;2.82;100.00
43436;BME280;36399;51.444;-2.018;2023-11-22T00:37:44;102440.44;;;2.83;100.00
43436;BME280;36399;51.444;-2.018;2023-11-22T00:40:10;102434.44;;;2.84;100.00
43436;BME280;36399;51.444;-2.018;2023-11-22T00:42:40;102435.47;;;2.86;100.00
43436;BME280;36399;51.444;-2.018;2023-11-22T00:45:09;102432.09;;;2.87;100.00
43436;BME280;36399;51.444;-2.018;2023-11-22T00:47:36;102432.44;;;2.92;100.00
43436;BME280;36399;51.444;-2.018;2023-11-22T00:50:02;102441.22;;;2.94;100.00
43436;BME280;36399;51.444;-2.018;2023-11-22T00:52:33;102442.47;;;2.99;100.00
43436;BME280;36399;51.444;-2.018;2023-11-22T00:54:58;102431.09;;;3.08;100.00
43436;BME280;36399;51.444;-2.018;2023-11-22T00:57:25;102440.38;;;3.16;100.00
43436;BME280;36399;51.444;-2.018;2023-11-22T00:59:53;102437.44;;;3.35;100.00
43436;BME280;36399;51.444;-2.018;2023-11-22T01:02:19;102432.91;;;3.33;100.00
43436;BME280;36399;51.444;-2.018;2023-11-22T01:04:46;102433.59;;;3.42;100.00
43436;BME280;36399;51.444;-2.018;2023-11-22T01:07:12;102434.50;;;3.31;100.00
43436;BME280;36399;51.444;-2.018;2023-11-22T01:09:38;102431.44;;;3.25;100.00
43436;BME280;36399;51.444;-2.018;2023-11-22T01:12:04;102427.94;;;3.24;100.00
43436;BME280;36399;51.444;-2.018;2023-11-22T01:14:30;102435.84;;;3.26;100.00
43436;BME280;36399;51.444;-2.018;2023-11-22T01:16:56;102434.28;;;3.28;100.00
43436;BME280;36399;51.444;-2.018;2023-11-22T01:19:22;102436.97;;;3.41;100.00
43436;BME280;36399;51.444;-2.018;2023-11-22T01:21:48;102438.31;;;3.47;100.00
43436;BME280;36399;51.444;-2.018;2023-11-22T01:24:14;102432.47;;;3.38;100.00
43436;BME280;36399;51.444;-2.018;2023-11-22T01:26:40;102428.41;;;3.30;100.00
43436;BME280;36399;51.444;-2.018;2023-11-22T01:29:06;102428.41;;;3.19;100.00
43436;BME280;36399;51.444;-2.018;2023-11-22T01:31:32;102413.06;;;3.22;100.00
43436;BME280;36399;51.444;-2.018;2023-11-22T01:33:59;102411.47;;;3.24;100.00
43436;BME280;36399;51.444;-2.018;2023-11-22T01:36:26;102422.31;;;3.30;100.00
43436;BME280;36399;51.444;-2.018;2023-11-22T01:38:53;102425.47;;;3.26;100.00
43436;BME280;36399;51.444;-2.018;2023-11-22T01:41:19;102429.97;;;3.28;100.00
43436;BME280;36399;51.444;-2.018;2023-11-22T01:43:45;102435.41;;;3.31;100.00
43436;BME280;36399;51.444;-2.018;2023-11-22T01:46:22;102437.88;;;3.30;100.00
43436;BME280;36399;51.444;-2.018;2023-11-22T01:48:50;102444.31;;;3.35;100.00
43436;BME280;36399;51.444;-2.018;2023-11-22T01:51:16;102440.13;;;3.37;100.00
43436;BME280;36399;51.444;-2.018;2023-11-22T01:53:42;102438.31;;;3.36;100.00
43436;BME280;36399;51.444;-2.018;2023-11-22T01:56:08;102436.53;;;3.35;100.00
43436;BME280;36399;51.444;-2.018;2023-11-22T01:58:35;102434.72;;;3.34;100.00
43436;BME280;36399;51.444;-2.018;2023-11-22T02:01:01;102439.00;;;3.33;100.00
43436;BME280;36399;51.444;-2.018;2023-11-22T02:03:27;102440.69;;;3.33;100.00
43436;BME280;36399;51.444;-2.018;2023-11-22T02:05:54;102442.41;;;3.32;100.00
43436;BME280;36399;51.444;-2.018;2023-11-22T02:08:20;102438.31;;;3.36;100.00
43436;BME280;36399;51.444;-2.018;2023-11-22T02:10:57;102440.34;;;3.40;100.00
43436;BME280;36399;51.444;-2.018;2023-11-22T02:13:23;102439.69;;;3.42;100.00
43436;BME280;36399;51.444;-2.018;2023-11-22T02:15:49;102442.38;;;3.44;100.00
43436;BME280;36399;51.444;-2.018;2023-11-22T02:18:15;102443.41;;;3.46;100.00
43436;BME280;36399;51.444;-2.018;2023-11-22T02:20:42;102437.53;;;3.48;100.00
43436;BME280;36399;51.444;-2.018;2023-11-22T02:23:09;102438.28;;;3.59;100.00
43436;BME280;36399;51.444;-2.018;2023-11-22T02:25:35;102437.16;;;3.56;100.00
43436;BME280;36399;51.444;-2.018;2023-11-22T02:28:01;102443.03;;;3.53;100.00
43436;BME280;36399;51.444;-2.018;2023-11-22T02:30:28;102452.41;;;3.51;100.00
43436;BME280;36399;51.444;-2.018;2023-11-22T02:32:54;102456.81;;;3.52;100.00
43436;BME280;36399;51.444;-2.018;2023-11-22T02:35:20;102464.50;;;3.51;100.00
43436;BME280;36399;51.444;-2.018;2023-11-22T02:37:46;102460.22;;;3.51;100.00
43436;BME280;36399;51.444;-2.018;2023-11-22T09:59:50;102369.09;;;7.08;100.00
43436;BME280;36399;51.444;-2.018;2023-11-22T10:02:18;102364.75;;;7.23;100.00
43436;BME280;36399;51.444;-2.018;2023-11-22T10:04:45;102358.63;;;7.22;100.00
43436;BME280;36399;51.444;-2.018;2023-11-22T10:07:11;102365.91;;;7.28;100.00
43436;BME280;36399;51.444;-2.018;2023-11-22T10:09:38;102347.25;;;7.37;100.00
43436;BME280;36399;51.444;-2.018;2023-11-22T10:12:10;102348.91;;;7.51;100.00
43436;BME280;36399;51.444;-2.018;2023-11-22T10:14:39;102343.53;;;7.64;100.00
43436;BME280;36399;51.444;-2.018;2023-11-22T10:17:05;102358.63;;;7.53;100.00
43436;BME280;36399;51.444;-2.018;2023-11-22T10:19:32;102368.53;;;7.59;100.00
43436;BME280;36399;51.444;-2.018;2023-11-22T10:22:02;102361.50;;;7.74;100.00
43436;BME280;36399;51.444;-2.018;2023-11-22T10:24:34;102343.13;;;7.73;100.00
43436;BME280;36399;51.444;-2.018;2023-11-22T10:27:01;102346.91;;;7.78;100.00
43436;BME280;36399;51.444;-2.018;2023-11-22T10:29:35;102340.84;;;7.79;100.00
43436;BME280;36399;51.444;-2.018;2023-11-22T11:18:17;102305.59;;;7.87;100.00
43436;BME280;36399;51.444;-2.018;2023-11-22T11:20:57;102298.06;;;7.93;100.00
43436;BME280;36399;51.444;-2.018;2023-11-22T11:23:30;102293.81;;;7.95;100.00
43436;BME280;36399;51.444;-2.018;2023-11-22T11:26:09;102276.47;;;7.97;100.00
43436;BME280;36399;51.444;-2.018;2023-11-22T11:28:51;102284.97;;;7.93;100.00
43436;BME280;36399;51.444;-2.018;2023-11-22T11:34:17;102281.44;;;8.09;100.00
43436;BME280;36399;51.444;-2.018;2023-11-22T11:36:43;102274.88;;;8.17;100.00
43436;BME280;36399;51.444;-2.018;2023-11-22T11:39:12;102254.56;;;8.29;100.00
43436;BME280;36399;51.444;-2.018;2023-11-22T11:41:42;102232.53;;;8.40;100.00
43436;BME280;36399;51.444;-2.018;2023-11-22T11:44:10;102255.41;;;8.62;100.00
43436;BME280;36399;51.444;-2.018;2023-11-22T11:46:38;102242.38;;;8.81;100.00
43436;BME280;36399;51.444;-2.018;2023-11-22T11:49:08;102232.66;;;8.97;100.00
43436;BME280;36399;51.444;-2.018;2023-11-22T11:51:37;102230.94;;;8.97;100.00
43436;BME280;36399;51.444;-2.018;2023-11-22T11:54:04;102210.63;;;9.11;100.00
43436;BME280;36399;51.444;-2.018;2023-11-22T11:56:33;102204.03;;;9.19;100.00
43436;BME280;36399;51.444;-2.018;2023-11-22T11:59:01;102201.94;;;9.31;100.00
43436;BME280;36399;51.444;-2.018;2023-11-22T12:01:28;102193.91;;;9.46;100.00
43436;BME280;36399;51.444;-2.018;2023-11-22T12:04:00;102188.03;;;9.52;100.00
43436;BME280;36399;51.444;-2.018;2023-11-22T12:06:28;102191.22;;;9.64;100.00
43436;BME280;36399;51.444;-2.018;2023-11-22T12:08:54;102186.53;;;9.57;100.00
43436;BME280;36399;51.444;-2.018;2023-11-22T12:11:20;102179.75;;;9.62;100.00
43436;BME280;36399;51.444;-2.018;2023-11-22T12:13:47;102177.97;;;9.61;100.00
43436;BME280;36399;51.444;-2.018;2023-11-22T12:16:18;102183.41;;;9.65;100.00
43436;BME280;36399;51.444;-2.018;2023-11-22T12:18:45;102177.94;;;9.80;100.00
43436;BME280;36399;51.444;-2.018;2023-11-22T12:21:13;102186.34;;;9.92;100.00
43436;BME280;36399;51.444;-2.018;2023-11-22T12:23:41;102182.91;;;9.93;100.00
43436;BME280;36399;51.444;-2.018;2023-11-22T12:26:19;102181.63;;;10.04;100.00
43436;BME280;36399;51.444;-2.018;2023-11-22T12:28:48;102171.28;;;9.88;100.00
43436;BME280;36399;51.444;-2.018;2023-11-22T12:31:15;102181.69;;;9.87;100.00
43436;BME280;36399;51.444;-2.018;2023-11-22T12:33:42;102174.38;;;9.99;100.00
43436;BME280;36399;51.444;-2.018;2023-11-22T12:36:10;102154.22;;;10.39;100.00
43436;BME280;36399;51.444;-2.018;2023-11-22T12:38:37;102149.78;;;10.59;100.00
43436;BME280;36399;51.444;-2.018;2023-11-22T12:41:05;102144.81;;;11.12;100.00
43436;BME280;36399;51.444;-2.018;2023-11-22T12:43:32;102142.69;;;11.25;100.00
43436;BME280;36399;51.444;-2.018;2023-11-22T12:46:03;102129.16;;;11.38;100.00
43436;BME280;36399;51.444;-2.018;2023-11-22T12:48:29;102123.41;;;11.25;100.00
43436;BME280;36399;51.444;-2.018;2023-11-22T12:50:56;102113.34;;;10.91;100.00
43436;BME280;36399;51.444;-2.018;2023-11-22T12:53:24;102112.66;;;10.50;100.00
43436;BME280;36399;51.444;-2.018;2023-11-22T12:55:56;102124.53;;;10.40;100.00
43436;BME280;36399;51.444;-2.018;2023-11-22T12:58:23;102124.06;;;10.51;100.00
43436;BME280;36399;51.444;-2.018;2023-11-22T13:00:51;102135.72;;;10.16;100.00
43436;BME280;36399;51.444;-2.018;2023-11-22T13:03:27;102134.78;;;9.93;100.00
43436;BME280;36399;51.444;-2.018;2023-11-22T13:05:54;102144.50;;;9.95;100.00
43436;BME280;36399;51.444;-2.018;2023-11-22T13:08:20;102147.16;;;9.76;100.00
43436;BME280;36399;51.444;-2.018;2023-11-22T13:10:50;102154.75;;;9.89;100.00
43436;BME280;36399;51.444;-2.018;2023-11-22T13:13:20;102159.44;;;9.77;100.00
43436;BME280;36399;51.444;-2.018;2023-11-22T13:15:47;102162.13;;;9.78;100.00
43436;BME280;36399;51.444;-2.018;2023-11-22T13:18:13;102161.34;;;9.81;100.00
43436;BME280;36399;51.444;-2.018;2023-11-22T13:20:39;102161.56;;;9.86;100.00
43436;BME280;36399;51.444;-2.018;2023-11-22T13:23:06;102149.06;;;9.80;100.00
43436;BME280;36399;51.444;-2.018;2023-11-22T13:25:33;102155.84;;;9.75;100.00
43436;BME280;36399;51.444;-2.018;2023-11-22T13:27:59;102155.91;;;9.76;100.00
43436;BME280;36399;51.444;-2.018;2023-11-22T13:30:25;102145.50;;;9.78;100.00
43436;BME280;36399;51.444;-2.018;2023-11-22T13:32:52;102154.06;;;9.74;100.00
43436;BME280;36399;51.444;-2.018;2023-11-22T13:35:19;102140.25;;;9.78;100.00
43436;BME280;36399;51.444;-2.018;2023-11-22T13:37:48;102130.25;;;9.69;100.00
43436;BME280;36399;51.444;-2.018;2023-11-22T13:40:18;102137.28;;;9.70;100.00
43436;BME280;36399;51.444;-2.018;2023-11-22T13:42:50;102146.72;;;9.86;100.00
43436;BME280;36399;51.444;-2.018;2023-11-22T13:45:18;102132.50;;;9.81;100.00
43436;BME280;36399;51.444;-2.018;2023-11-22T13:47:47;102131.03;;;9.88;100.00
43436;BME280;36399;51.444;-2.018;2023-11-22T13:50:15;102133.88;;;9.92;100.00
43436;BME280;36399;51.444;-2.018;2023-11-22T13:52:48;102126.25;;;9.98;100.00
43436;BME280;36399;51.444;-2.018;2023-11-22T13:55:14;102138.09;;;10.09;100.00
43436;BME280;36399;51.444;-2.018;2023-11-22T13:57:43;102139.47;;;10.21;100.00
43436;BME280;36399;51.444;-2.018;2023-11-22T14:00:10;102148.06;;;10.39;100.00
43436;BME280;36399;51.444;-2.018;2023-11-22T14:02:51;102139.59;;;10.45;100.00
43436;BME280;36399;51.444;-2.018;2023-11-22T14:05:17;102148.72;;;10.54;100.00
43436;BME280;36399;51.444;-2.018;2023-11-22T14:07:43;102141.78;;;10.56;100.00
43436;BME280;36399;51.444;-2.018;2023-11-22T14:10:10;102136.66;;;10.59;100.00
43436;BME280;36399;51.444;-2.018;2023-11-22T14:12:37;102140.47;;;10.67;100.00
43436;BME280;36399;51.444;-2.018;2023-11-22T14:15:07;102131.78;;;10.68;100.00
43436;BME280;36399;51.444;-2.018;2023-11-22T14:17:33;102121.56;;;10.76;100.00
43436;BME280;36399;51.444;-2.018;2023-11-22T14:19:59;102116.25;;;10.74;100.00
43436;BME280;36399;51.444;-2.018;2023-11-22T14:22:26;102105.72;;;10.74;100.00
43436;BME280;36399;51.444;-2.018;2023-11-22T14:24:53;102118.16;;;10.79;100.00
43436;BME280;36399;51.444;-2.018;2023-11-22T14:27:19;102118.38;;;10.85;100.00
43436;BME280;36399;51.444;-2.018;2023-11-22T14:29:46;102110.25;;;10.79;100.00
43436;BME280;36399;51.444;-2.018;2023-11-22T14:32:16;102109.31;;;10.77;100.00
43436;BME280;36399;51.444;-2.018;2023-11-22T14:34:43;102117.38;;;10.81;100.00
43436;BME280;36399;51.444;-2.018;2023-11-22T14:37:12;102114.81;;;10.83;100.00
43436;BME280;36399;51.444;-2.018;2023-11-22T14:39:38;102115.69;;;10.83;100.00
43436;BME280;36399;51.444;-2.018;2023-11-22T14:42:05;102121.19;;;10.89;100.00
43436;BME280;36399;51.444;-2.018;2023-11-22T14:44:34;102116.81;;;10.90;100.00
43436;BME280;36399;51.444;-2.018;2023-11-22T14:47:01;102116.69;;;10.87;100.00
43436;BME280;36399;51.444;-2.018;2023-11-22T14:49:33;102116.47;;;10.81;100.00
43436;BME280;36399;51.444;-2.018;2023-11-22T14:51:59;102120.06;;;10.83;100.00
43436;BME280;36399;51.444;-2.018;2023-11-22T14:54:26;102126.16;;;10.82;100.00
43436;BME280;36399;51.444;-2.018;2023-11-22T14:56:52;102121.66;;;10.79;100.00
43436;BME280;36399;51.444;-2.018;2023-11-22T14:59:19;102116.34;;;10.78;100.00
43436;BME280;36399;51.444;-2.018;2023-11-22T15:01:45;102123.28;;;10.75;100.00
43436;BME280;36399;51.444;-2.018;2023-11-22T15:04:12;102128.66;;;10.79;100.00
43436;BME280;36399;51.444;-2.018;2023-11-22T15:06:38;102127.75;;;10.78;100.00
43436;BME280;36399;51.444;-2.018;2023-11-22T15:09:04;102130.44;;;10.80;100.00
43436;BME280;36399;51.444;-2.018;2023-11-22T15:11:36;102129.50;;;10.78;100.00
43436;BME280;36399;51.444;-2.018;2023-11-22T15:14:04;102131.47;;;10.83;100.00
43436;BME280;36399;51.444;-2.018;2023-11-22T15:16:30;102124.28;;;10.79;100.00
43436;BME280;36399;51.444;-2.018;2023-11-22T15:18:57;102118.03;;;10.75;100.00
43436;BME280;36399;51.444;-2.018;2023-11-22T15:21:25;102110.88;;;10.71;100.00
43436;BME280;36399;51.444;-2.018;2023-11-22T15:23:55;102114.22;;;10.67;100.00
43436;BME280;36399;51.444;-2.018;2023-11-22T15:26:24;102119.94;;;10.57;100.00
43436;BME280;36399;51.444;-2.018;2023-11-22T15:28:50;102120.44;;;10.47;100.00
43436;BME280;36399;51.444;-2.018;2023-11-22T15:31:17;102125.16;;;10.35;100.00
43436;BME280;36399;51.444;-2.018;2023-11-22T15:33:44;102127.31;;;10.23;100.00
43436;BME280;36399;51.444;-2.018;2023-11-22T15:36:11;102128.56;;;10.11;100.00
43436;BME280;36399;51.444;-2.018;2023-11-22T15:38:37;102137.72;;;10.00;100.00
43436;BME280;36399;51.444;-2.018;2023-11-22T15:41:04;102141.53;;;9.88;100.00
43436;BME280;36399;51.444;-2.018;2023-11-22T15:43:30;102148.88;;;9.75;100.00
43436;BME280;36399;51.444;-2.018;2023-11-22T15:45:56;102155.59;;;9.69;100.00
43436;BME280;36399;51.444;-2.018;2023-11-22T15:48:24;102156.16;;;9.62;100.00
43436;BME280;36399;51.444;-2.018;2023-11-22T15:50:51;102161.25;;;9.59;100.00
43436;BME280;36399;51.444;-2.018;2023-11-22T15:53:17;102163.88;;;9.59;100.00
43436;BME280;36399;51.444;-2.018;2023-11-22T15:55:43;102170.09;;;9.61;100.00
43436;BME280;36399;51.444;-2.018;2023-11-22T15:58:10;102171.81;;;9.60;100.00
43436;BME280;36399;51.444;-2.018;2023-11-22T16:00:36;102163.88;;;9.59;100.00
43436;BME280;36399;51.444;-2.018;2023-11-22T16:03:04;102174.38;;;9.59;100.00
43436;BME280;36399;51.444;-2.018;2023-11-22T16:05:36;102160.31;;;9.57;100.00
43436;BME280;36399;51.444;-2.018;2023-11-22T16:08:02;102170.72;;;9.55;100.00
43436;BME280;36399;51.444;-2.018;2023-11-22T16:10:28;102166.19;;;9.51;100.00
43436;BME280;36399;51.444;-2.018;2023-11-22T16:12:54;102176.59;;;9.49;100.00
43436;BME280;36399;51.444;-2.018;2023-11-22T16:15:20;102176.59;;;9.49;100.00
43436;BME280;36399;51.444;-2.018;2023-11-22T16:17:46;102177.97;;;9.41;100.00
43436;BME280;36399;51.444;-2.018;2023-11-22T16:20:12;102182.53;;;9.45;100.00
43436;BME280;36399;51.444;-2.018;2023-11-22T16:22:41;102178.50;;;9.34;100.00
43436;BME280;36399;51.444;-2.018;2023-11-22T16:25:16;102173.13;;;9.31;100.00
43436;BME280;36399;51.444;-2.018;2023-11-22T16:27:49;102171.59;;;9.17;100.00
43436;BME280;36399;51.444;-2.018;2023-11-22T16:30:16;102168.63;;;9.09;100.00
43436;BME280;36399;51.444;-2.018;2023-11-22T16:32:43;102171.88;;;9.04;100.00
43436;BME280;36399;51.444;-2.018;2023-11-22T16:35:09;102172.56;;;9.00;100.00
43436;BME280;36399;51.444;-2.018;2023-11-22T16:37:36;102176.22;;;9.03;100.00
43436;BME280;36399;51.444;-2.018;2023-11-22T16:40:02;102176.25;;;8.85;100.00
43436;BME280;36399;51.444;-2.018;2023-11-22T16:42:37;102163.75;;;8.98;100.00
43436;BME280;36399;51.444;-2.018;2023-11-22T16:45:05;102168.00;;;8.96;100.00
43436;BME280;36399;51.444;-2.018;2023-11-22T16:47:31;102167.88;;;8.93;100.00
43436;BME280;36399;51.444;-2.018;2023-11-22T16:49:58;102172.66;;;8.83;100.00
43436;BME280;36399;51.444;-2.018;2023-11-22T16:52:24;102171.59;;;8.80;100.00
43436;BME280;36399;51.444;-2.018;2023-11-22T16:54:51;102164.66;;;8.80;100.00
43436;BME280;36399;51.444;-2.018;2023-11-22T16:57:18;102163.41;;;8.72;100.00
43436;BME280;36399;51.444;-2.018;2023-11-22T16:59:45;102163.81;;;8.81;100.00
43436;BME280;36399;51.444;-2.018;2023-11-22T17:02:12;102165.19;;;8.73;100.00
43436;BME280;36399;51.444;-2.018;2023-11-22T17:04:39;102175.94;;;8.79;100.00
43436;BME280;36399;51.444;-2.018;2023-11-22T17:07:09;102168.09;;;8.79;100.00
43436;BME280;36399;51.444;-2.018;2023-11-22T17:09:35;102179.09;;;8.72;100.00
43436;BME280;36399;51.444;-2.018;2023-11-22T17:12:06;102175.09;;;8.61;100.00
43436;BME280;36399;51.444;-2.018;2023-11-22T17:14:32;102167.84;;;8.56;100.00
43436;BME280;36399;51.444;-2.018;2023-11-22T17:16:59;102171.06;;;8.50;100.00
43436;BME280;36399;51.444;-2.018;2023-11-22T17:19:25;102172.03;;;8.34;100.00
43436;BME280;36399;51.444;-2.018;2023-11-22T17:21:51;102174.34;;;8.30;100.00
43436;BME280;36399;51.444;-2.018;2023-11-22T17:24:18;102178.91;;;8.16;100.00
43436;BME280;36399;51.444;-2.018;2023-11-22T17:26:44;102175.16;;;8.11;100.00
43436;BME280;36399;51.444;-2.018;2023-11-22T17:29:10;102178.47;;;8.07;100.00
43436;BME280;36399;51.444;-2.018;2023-11-22T17:31:36;102180.63;;;7.98;100.00
43436;BME280;36399;51.444;-2.018;2023-11-22T17:34:02;102187.03;;;7.86;100.00
43436;BME280;36399;51.444;-2.018;2023-11-22T17:36:28;102190.53;;;7.87;100.00
43436;BME280;36399;51.444;-2.018;2023-11-22T17:38:54;102190.44;;;7.85;100.00
43436;BME280;36399;51.444;-2.018;2023-11-22T17:41:22;102186.34;;;7.90;100.00
43436;BME280;36399;51.444;-2.018;2023-11-22T17:43:48;102192.78;;;7.97;100.00
43436;BME280;36399;51.444;-2.018;2023-11-22T17:46:15;102194.16;;;8.07;100.00
43436;BME280;36399;51.444;-2.018;2023-11-22T17:48:41;102201.13;;;8.24;100.00
43436;BME280;36399;51.444;-2.018;2023-11-22T17:51:08;102200.44;;;8.28;100.00
43436;BME280;36399;51.444;-2.018;2023-11-22T17:53:34;102205.00;;;8.48;100.00
43436;BME280;36399;51.444;-2.018;2023-11-22T17:56:00;102201.78;;;8.54;100.00
43436;BME280;36399;51.444;-2.018;2023-11-22T17:58:27;102209.34;;;8.66;100.00
43436;BME280;36399;51.444;-2.018;2023-11-22T18:00:53;102211.41;;;8.73;100.00
43436;BME280;36399;51.444;-2.018;2023-11-22T18:03:20;102206.53;;;8.80;100.00
43436;BME280;36399;51.444;-2.018;2023-11-22T18:05:46;102210.00;;;8.97;100.00
43436;BME280;36399;51.444;-2.018;2023-11-22T18:08:13;102201.09;;;8.94;100.00
43436;BME280;36399;51.444;-2.018;2023-11-22T18:10:40;102197.50;;;8.92;100.00
43436;BME280;36399;51.444;-2.018;2023-11-22T18:13:06;102187.72;;;8.88;100.00
43436;BME280;36399;51.444;-2.018;2023-11-22T18:15:36;102182.31;;;8.84;100.00
43436;BME280;36399;51.444;-2.018;2023-11-22T18:18:06;102186.81;;;8.87;100.00
43436;BME280;36399;51.444;-2.018;2023-11-22T18:20:32;102192.25;;;8.92;100.00
43436;BME280;36399;51.444;-2.018;2023-11-22T18:23:00;102193.88;;;9.07;100.00
43436;BME280;36399;51.444;-2.018;2023-11-22T18:25:28;102201.81;;;9.09;100.00
43436;BME280;36399;51.444;-2.018;2023-11-22T18:27:54;102190.22;;;9.04;100.00
43436;BME280;36399;51.444;-2.018;2023-11-22T18:30:20;102201.81;;;9.09;100.00
43436;BME280;36399;51.444;-2.018;2023-11-22T18:32:46;102194.84;;;9.09;100.00
43436;BME280;36399;51.444;-2.018;2023-11-22T18:35:13;102197.59;;;9.12;100.00
43436;BME280;36399;51.444;-2.018;2023-11-22T18:37:41;102197.59;;;9.12;100.00
43436;BME280;36399;51.444;-2.018;2023-11-22T18:40:08;102198.91;;;9.22;100.00
43436;BME280;36399;51.444;-2.018;2023-11-22T18:42:34;102207.75;;;9.24;100.00
43436;BME280;36399;51.444;-2.018;2023-11-22T18:45:03;102206.09;;;9.26;100.00
43436;BME280;36399;51.444;-2.018;2023-11-22T18:47:29;102201.88;;;9.30;100.00
43436;BME280;36399;51.444;-2.018;2023-11-22T18:49:55;102206.38;;;9.32;100.00
43436;BME280;36399;51.444;-2.018;2023-11-22T18:52:21;102208.47;;;9.39;100.00
43436;BME280;36399;51.444;-2.018;2023-11-22T18:54:48;102203.22;;;9.39;100.00
43436;BME280;36399;51.444;-2.018;2023-11-22T18:57:14;102192.13;;;9.45;100.00
43436;BME280;36399;51.444;-2.018;2023-11-22T18:59:43;102189.28;;;9.40;100.00
43436;BME280;36399;51.444;-2.018;2023-11-22T19:02:12;102190.50;;;9.29;100.00
43436;BME280;36399;51.444;-2.018;2023-11-22T19:04:39;102188.44;;;9.22;100.00
43436;BME280;36399;51.444;-2.018;2023-11-22T19:07:08;102189.13;;;9.18;100.00
43436;BME280;36399;51.444;-2.018;2023-11-22T19:09:34;102186.28;;;9.13;100.00
43436;BME280;36399;51.444;-2.018;2023-11-22T19:12:00;102196.69;;;9.12;100.00
43436;BME280;36399;51.444;-2.018;2023-11-22T19:14:26;102189.81;;;9.14;100.00
43436;BME280;36399;51.444;-2.018;2023-11-22T19:16:54;102198.63;;;9.16;100.00
43436;BME280;36399;51.444;-2.018;2023-11-22T19:19:20;102191.66;;;9.16;100.00
43436;BME280;36399;51.444;-2.018;2023-11-22T19:21:46;102192.63;;;9.18;100.00
43436;BME280;36399;51.444;-2.018;2023-11-22T19:24:12;102195.19;;;9.17;100.00
43436;BME280;36399;51.444;-2.018;2023-11-22T19:26:39;102193.41;;;9.16;100.00
43436;BME280;36399;51.444;-2.018;2023-11-22T19:29:05;102205.53;;;9.14;100.00
43436;BME280;36399;51.444;-2.018;2023-11-22T19:31:31;102208.97;;;9.13;100.00
43436;BME280;36399;51.444;-2.018;2023-11-22T19:33:57;102203.03;;;8.98;100.00
43436;BME280;36399;51.444;-2.018;2023-11-22T19:36:25;102195.84;;;8.94;100.00
43436;BME280;36399;51.444;-2.018;2023-11-22T19:38:52;102201.09;;;8.76;100.00
43436;BME280;36399;51.444;-2.018;2023-11-22T19:41:20;102191.06;;;8.67;100.00
43436;BME280;36399;51.444;-2.018;2023-11-22T19:43:53;102202.00;;;8.59;100.00
43436;BME280;36399;51.444;-2.018;2023-11-22T19:46:19;102193.50;;;8.45;100.00
43436;BME280;36399;51.444;-2.018;2023-11-22T19:48:45;102195.72;;;8.37;100.00
43436;BME280;36399;51.444;-2.018;2023-11-22T19:51:11;102196.47;;;8.35;100.00
43436;BME280;36399;51.444;-2.018;2023-11-22T19:53:37;102194.75;;;8.19;100.00
43436;BME280;36399;51.444;-2.018;2023-11-22T19:56:04;102197.44;;;8.03;100.00
43436;BME280;36399;51.444;-2.018;2023-11-22T19:58:30;102196.22;;;7.96;100.00
43436;BME280;36399;51.444;-2.018;2023-11-22T20:00:56;102199.50;;;7.92;100.00
43436;BME280;36399;51.444;-2.018;2023-11-22T20:03:25;102193.63;;;7.80;100.00
43436;BME280;36399;51.444;-2.018;2023-11-22T20:05:54;102202.13;;;7.92;100.00
43436;BME280;36399;51.444;-2.018;2023-11-22T20:08:20;102206.53;;;7.93;100.00
43436;BME280;36399;51.444;-2.018;2023-11-22T20:10:48;102206.16;;;7.85;100.00
43436;BME280;36399;51.444;-2.018;2023-11-22T20:13:15;102206.22;;;7.87;100.00
43436;BME280;36399;51.444;-2.018;2023-11-22T20:15:42;102204.91;;;7.95;100.00
43436;BME280;36399;51.444;-2.018;2023-11-22T20:18:08;102204.59;;;7.89;100.00
43436;BME280;36399;51.444;-2.018;2023-11-22T20:20:36;102204.06;;;7.80;100.00
43436;BME280;36399;51.444;-2.018;2023-11-22T20:23:02;102198.53;;;7.74;100.00
43436;BME280;36399;51.444;-2.018;2023-11-22T20:25:31;102204.19;;;7.65;100.00
43436;BME280;36399;51.444;-2.018;2023-11-22T20:27:57;102197.91;;;7.62;100.00
43436;BME280;36399;51.444;-2.018;2023-11-22T20:30:23;102204.19;;;7.49;100.00
43436;BME280;36399;51.444;-2.018;2023-11-22T20:32:49;102201.31;;;7.28;100.00
43436;BME280;36399;51.444;-2.018;2023-11-22T20:35:15;102201.66;;;7.18;100.00
43436;BME280;36399;51.444;-2.018;2023-11-22T20:37:41;102207.50;;;7.14;100.00
43436;BME280;36399;51.444;-2.018;2023-11-22T20:40:07;102205.06;;;7.01;100.00
43436;BME280;36399;51.444;-2.018;2023-11-22T20:42:34;102209.47;;;7.18;100.00
43436;BME280;36399;51.444;-2.018;2023-11-22T20:45:00;102209.28;;;7.30;100.00
43436;BME280;36399;51.444;-2.018;2023-11-22T20:47:26;102209.97;;;7.27;100.00